Time;durP1;ratioP1;P1;durP2;ratioP2;P2;SDS_P1;SDS_P2;PMS_P1;PMS_P2;Temp;Humidity;BMP_temperature;BMP_pressure;BME280_temperature;BME280_humidity;BME280_pressure;Samples;Min_cycle;Max_cycle;Signal;HPM_P1;HPM_P2
2023/03/20 00:00:24;;;;;;;24.30;16.10;;;11.20;99.90;;;;;;4937385;29;20201;-92
2023/03/20 00:02:52;;;;;;;18.63;14.40;;;11.20;99.90;;;;;;4936967;29;20197;-93
2023/03/20 00:05:22;;;;;;;23.63;16.33;;;11.20;99.90;;;;;;4937123;29;20602;-94
2023/03/20 00:07:49;;;;;;;22.20;15.97;;;11.10;99.90;;;;;;4937565;29;20208;-93
2023/03/20 00:10:17;;;;;;;21.90;16.37;;;11.10;99.90;;;;;;4937599;29;20203;-94
2023/03/20 00:12:47;;;;;;;27.67;18.70;;;11.10;99.90;;;;;;4937213;29;20245;-93
2023/03/20 00:15:25;;;;;;;30.50;19.93;;;11.10;99.90;;;;;;4936741;29;20232;-92
2023/03/20 00:17:54;;;;;;;33.77;20.70;;;11.10;99.90;;;;;;4928978;29;20224;-93
2023/03/20 00:20:21;;;;;;;31.10;20.03;;;11.00;99.90;;;;;;4937342;29;20209;-94
2023/03/20 00:22:48;;;;;;;26.67;19.03;;;11.00;99.90;;;;;;4923598;29;20216;-94
2023/03/20 00:25:17;;;;;;;32.27;20.07;;;11.00;99.90;;;;;;4925841;29;20217;-93
2023/03/20 00:27:44;;;;;;;34.70;21.23;;;11.00;99.90;;;;;;4934770;29;20932;-94
2023/03/20 00:30:30;;;;;;;35.00;20.57;;;10.90;99.90;;;;;;4933997;29;20216;-94
2023/03/20 00:32:59;;;;;;;36.70;23.10;;;10.90;99.90;;;;;;4929253;29;20200;-93
2023/03/20 00:35:28;;;;;;;24.37;17.60;;;10.90;99.90;;;;;;4926957;29;20206;-94
2023/03/20 00:37:56;;;;;;;23.40;16.90;;;10.90;99.90;;;;;;4937714;29;20329;-95
2023/03/20 00:40:28;;;;;;;21.87;17.20;;;10.90;99.90;;;;;;4937647;29;20212;-94
2023/03/20 00:42:59;;;;;;;24.50;17.00;;;10.80;99.90;;;;;;4927585;29;20203;-94
2023/03/20 00:45:27;;;;;;;25.23;17.00;;;10.80;99.90;;;;;;4937089;29;20238;-94
2023/03/20 00:47:56;;;;;;;27.40;17.60;;;10.80;99.90;;;;;;4936579;29;20213;-94
2023/03/20 00:50:28;;;;;;;24.47;17.87;;;10.70;99.90;;;;;;4924943;29;20213;-95
2023/03/20 00:52:56;;;;;;;21.17;16.23;;;10.70;99.90;;;;;;4936113;29;20209;-96
2023/03/20 00:55:25;;;;;;;27.57;17.63;;;10.70;99.90;;;;;;4938558;29;20269;-95
2023/03/20 00:57:55;;;;;;;26.37;18.30;;;10.70;99.90;;;;;;4928770;29;20227;-95
2023/03/20 01:00:38;;;;;;;25.53;17.73;;;10.70;99.90;;;;;;4932962;29;20216;-94
2023/03/20 01:03:13;;;;;;;22.47;17.50;;;10.70;99.90;;;;;;4934807;29;20197;-96
2023/03/20 01:05:41;;;;;;;22.27;18.03;;;10.60;1.00;;;;;;4941046;29;20294;-94
2023/03/20 01:08:13;;;;;;;25.00;17.67;;;10.60;1.00;;;;;;4940451;29;20213;-94
2023/03/20 01:10:40;;;;;;;26.97;17.63;;;10.60;1.00;;;;;;4940638;29;20204;-95
2023/03/20 01:13:17;;;;;;;22.97;17.63;;;10.60;1.00;;;;;;4930810;29;20656;-94
2023/03/20 01:15:44;;;;;;;22.20;17.03;;;10.50;1.00;;;;;;4939195;29;20237;-95
2023/03/20 01:18:13;;;;;;;24.37;17.83;;;10.50;1.00;;;;;;4937399;29;20237;-94
2023/03/20 01:20:42;;;;;;;24.37;18.50;;;10.50;1.00;;;;;;4930554;29;20260;-93
2023/03/20 01:23:10;;;;;;;24.90;17.77;;;10.50;1.00;;;;;;4940378;29;20210;-94
2023/03/20 01:25:38;;;;;;;24.70;17.60;;;10.50;1.00;;;;;;4927519;29;20218;-95
2023/03/20 01:28:13;;;;;;;25.83;17.73;;;10.50;1.00;;;;;;4940354;29;20203;-95
2023/03/20 01:30:40;;;;;;;25.70;18.50;;;10.50;1.00;;;;;;4931687;29;20292;-94
2023/03/20 01:33:13;;;;;;;26.03;18.90;;;10.40;1.00;;;;;;4933930;29;20214;-94
2023/03/20 01:35:42;;;;;;;26.23;18.90;;;10.40;1.00;;;;;;4940327;29;20263;-95
2023/03/20 01:38:13;;;;;;;27.27;18.87;;;10.40;1.00;;;;;;4939829;29;20225;-94
2023/03/20 01:40:49;;;;;;;26.90;18.93;;;10.40;1.00;;;;;;4927759;29;20215;-94
2023/03/20 01:43:18;;;;;;;27.90;20.03;;;10.40;1.00;;;;;;4940506;29;20214;-93
2023/03/20 01:45:56;;;;;;;26.13;19.43;;;10.40;1.00;;;;;;4932474;29;20674;-93
2023/03/20 01:48:27;;;;;;;27.10;18.90;;;10.30;1.00;;;;;;4931091;29;20216;-93
2023/03/20 01:50:55;;;;;;;28.00;20.47;;;10.30;1.00;;;;;;4931622;29;20189;-94
2023/03/20 01:53:25;;;;;;;26.37;19.47;;;10.30;1.00;;;;;;4928066;29;20202;-94
2023/03/20 01:55:56;;;;;;;26.50;19.80;;;10.40;1.00;;;;;;4940174;29;20197;-95
2023/03/20 01:58:27;;;;;;;27.30;18.97;;;10.40;1.00;;;;;;4940460;29;20216;-94
2023/03/20 02:00:54;;;;;;;26.77;19.97;;;10.40;1.00;;;;;;4939964;29;20217;-94
2023/03/20 02:03:23;;;;;;;30.20;20.00;;;10.40;1.00;;;;;;4936919;29;20221;-95
2023/03/20 02:05:50;;;;;;;28.50;20.30;;;10.40;1.00;;;;;;4931869;29;20227;-95
2023/03/20 02:08:25;;;;;;;24.57;19.33;;;10.30;1.00;;;;;;4927143;29;20633;-95
2023/03/20 02:10:53;;;;;;;27.87;20.50;;;10.30;1.00;;;;;;4939769;29;20726;-95
2023/03/20 02:13:21;;;;;;;29.23;20.83;;;10.40;1.00;;;;;;4926801;29;20221;-94
2023/03/20 02:16:01;;;;;;;27.80;20.27;;;10.30;20.40;;;;;;4936819;29;20242;-94
2023/03/20 02:18:28;;;;;;;32.53;21.37;;;10.40;95.40;;;;;;4931057;29;20212;-95
2023/03/20 02:21:38;;;;;;;28.93;20.30;;;10.40;76.80;;;;;;4938777;29;20670;-93
2023/03/20 02:24:38;;;;;;;30.97;20.70;;;10.30;99.90;;;;;;4937639;29;20204;-94
2023/03/20 02:27:13;;;;;;;27.27;20.27;;;10.40;67.30;;;;;;4843946;29;20219;-92
2023/03/20 02:30:14;;;;;;;26.60;20.23;;;10.30;96.90;;;;;;4843869;29;20692;-93
2023/03/20 02:33:24;;;;;;;27.03;19.87;;;10.30;99.90;;;;;;4834614;29;20246;-93
2023/03/20 02:36:26;;;;;;;25.57;19.97;;;10.40;99.90;;;;;;4843713;29;20213;-93
2023/03/20 02:39:15;;;;;;;27.70;20.30;;;10.30;63.60;;;;;;4835651;29;20224;-93
2023/03/20 02:41:48;;;;;;;27.57;19.77;;;10.30;99.40;;;;;;4844180;29;20294;-92
2023/03/20 02:44:21;;;;;;;28.13;19.87;;;10.30;99.90;;;;;;4843848;29;20620;-93
2023/03/20 02:46:59;;;;;;;32.20;21.07;;;10.30;99.90;;;;;;4843578;29;20219;-93
2023/03/20 02:49:48;;;;;;;25.83;20.03;;;10.40;99.90;;;;;;4835531;29;20222;-94
2023/03/20 02:52:20;;;;;;;28.23;19.80;;;10.40;99.90;;;;;;4843433;29;20218;-92
2023/03/20 02:54:57;;;;;;;29.80;21.10;;;10.50;99.90;;;;;;4843811;29;20212;-93
2023/03/20 02:57:38;;;;;;;33.20;21.13;;;10.60;99.90;;;;;;4839320;29;20202;-93
2023/03/20 03:00:12;;;;;;;33.10;20.70;;;10.60;99.90;;;;;;4841161;29;20205;-93
2023/03/20 03:02:42;;;;;;;29.53;20.33;;;10.60;99.90;;;;;;4833490;29;20214;-92
2023/03/20 03:05:15;;;;;;;27.83;19.60;;;10.60;99.90;;;;;;4933367;29;20211;-92
2023/03/20 03:07:45;;;;;;;29.03;19.13;;;10.60;99.90;;;;;;4938630;29;20262;-92
2023/03/20 03:10:18;;;;;;;26.20;19.53;;;10.70;99.90;;;;;;4938363;29;20206;-93
2023/03/20 03:12:48;;;;;;;28.43;19.90;;;10.70;99.90;;;;;;4937876;29;20312;-91
2023/03/20 03:15:20;;;;;;;26.23;19.77;;;10.70;99.90;;;;;;4938698;29;20205;-92
2023/03/20 03:17:48;;;;;;;26.47;20.07;;;10.70;99.90;;;;;;4929146;29;20595;-91
2023/03/20 03:20:22;;;;;;;27.53;19.43;;;10.70;99.90;;;;;;4938137;29;20602;-91
2023/03/20 03:22:49;;;;;;;28.57;19.80;;;10.60;99.90;;;;;;4925027;29;20194;-93
2023/03/20 03:25:18;;;;;;;28.70;20.00;;;10.60;99.90;;;;;;4938018;29;22503;-92
2023/03/20 03:27:47;;;;;;;29.33;20.53;;;10.60;99.90;;;;;;4938443;29;20219;-92
2023/03/20 03:30:19;;;;;;;29.90;20.50;;;10.70;99.90;;;;;;4937821;29;20212;-92
2023/03/20 03:32:49;;;;;;;28.10;20.70;;;10.70;99.90;;;;;;4937759;29;20196;-92
2023/03/20 03:35:20;;;;;;;31.07;21.77;;;10.70;99.90;;;;;;4937569;29;20208;-92
2023/03/20 03:37:54;;;;;;;76.23;34.40;;;10.70;99.90;;;;;;4937578;29;20239;-92
2023/03/20 03:40:30;;;;;;;59.07;29.73;;;10.60;99.90;;;;;;4926619;29;20214;-92
2023/03/20 03:43:03;;;;;;;35.90;23.13;;;10.50;1.00;;;;;;4933493;29;20216;-93
2023/03/20 03:45:35;;;;;;;29.97;22.13;;;10.50;1.00;;;;;;4937354;29;20202;-92
2023/03/20 03:48:06;;;;;;;30.43;22.10;;;10.50;1.00;;;;;;4937825;29;20569;-93
2023/03/20 03:50:38;;;;;;;28.07;21.80;;;10.50;1.00;;;;;;4937869;29;20227;-92
2023/03/20 03:53:10;;;;;;;28.13;21.33;;;10.50;1.00;;;;;;4937700;29;20196;-91
2023/03/20 03:55:43;;;;;;;32.77;23.17;;;10.40;1.00;;;;;;4937562;29;20291;-93
2023/03/20 03:58:15;;;;;;;49.50;27.87;;;10.40;1.00;;;;;;4927165;29;20227;-93
2023/03/20 04:00:46;;;;;;;58.80;30.93;;;10.50;1.00;;;;;;4931713;29;20212;-92
2023/03/20 04:03:14;;;;;;;35.23;23.77;;;10.50;1.00;;;;;;4937664;29;20205;-92
2023/03/20 04:05:44;;;;;;;33.63;24.00;;;10.40;1.00;;;;;;4937422;29;20252;-92
2023/03/20 04:08:11;;;;;;;33.57;23.47;;;10.40;1.00;;;;;;4937334;29;20677;-92
2023/03/20 04:10:39;;;;;;;31.97;23.07;;;10.40;1.00;;;;;;4937717;29;20203;-91
2023/03/20 04:13:06;;;;;;;37.43;24.43;;;10.40;1.00;;;;;;4937725;29;20230;-92
2023/03/20 04:15:33;;;;;;;32.30;23.13;;;10.40;1.00;;;;;;4936635;29;20209;-93
2023/03/20 04:18:00;;;;;;;34.63;23.70;;;10.30;1.00;;;;;;4937315;29;20209;-92
2023/03/20 04:20:26;;;;;;;34.07;25.07;;;10.30;1.00;;;;;;4937541;29;20647;-91
2023/03/20 04:22:53;;;;;;;37.23;24.83;;;10.30;1.00;;;;;;4923896;29;20224;-92
2023/03/20 04:25:22;;;;;;;33.77;23.57;;;10.30;1.00;;;;;;4937208;29;20203;-92
2023/03/20 04:27:51;;;;;;;33.77;23.57;;;10.30;1.00;;;;;;4937445;29;20194;-93
2023/03/20 04:30:18;;;;;;;37.17;26.40;;;10.30;1.00;;;;;;4936600;29;20205;-93
2023/03/20 04:32:45;;;;;;;36.43;26.63;;;10.30;1.00;;;;;;4937037;29;20209;-94
2023/03/20 04:35:12;;;;;;;39.83;26.90;;;10.30;1.00;;;;;;4932015;29;20220;-92
2023/03/20 04:37:39;;;;;;;34.53;25.57;;;10.30;1.00;;;;;;4935318;29;20208;-94
2023/03/20 04:40:06;;;;;;;36.17;25.43;;;10.30;1.00;;;;;;4941074;29;20212;-92
2023/03/20 04:42:33;;;;;;;34.60;25.33;;;10.20;1.00;;;;;;4935222;29;20218;-92
2023/03/20 04:45:01;;;;;;;33.03;24.80;;;10.10;1.00;;;;;;4933534;29;20207;-93
2023/03/20 04:47:28;;;;;;;36.17;25.07;;;10.10;1.00;;;;;;4941074;29;20208;-92
2023/03/20 04:49:55;;;;;;;35.93;25.73;;;9.90;1.00;;;;;;4941364;29;20207;-92
2023/03/20 04:52:22;;;;;;;34.07;25.30;;;9.90;24.80;;;;;;4935302;29;20240;-92
2023/03/20 04:54:49;;;;;;;36.47;24.93;;;9.70;99.50;;;;;;4930759;29;20212;-92
2023/03/20 04:57:15;;;;;;;35.13;24.80;;;9.70;99.90;;;;;;4940378;29;20200;-92
2023/03/20 04:59:43;;;;;;;35.03;24.50;;;9.60;99.90;;;;;;4940400;29;20315;-93
2023/03/20 05:02:13;;;;;;;33.47;24.57;;;9.50;99.90;;;;;;4940555;29;20576;-92
2023/03/20 05:04:40;;;;;;;35.97;24.93;;;9.50;99.90;;;;;;4940603;29;20218;-91
2023/03/20 05:07:07;;;;;;;35.90;25.20;;;9.50;99.90;;;;;;4940756;29;20214;-91
2023/03/20 05:09:34;;;;;;;36.20;25.70;;;9.50;99.90;;;;;;4940393;29;20198;-92
2023/03/20 05:12:01;;;;;;;35.50;24.23;;;9.50;99.90;;;;;;4940576;29;20254;-92
2023/03/20 05:14:28;;;;;;;35.70;25.10;;;9.50;99.90;;;;;;4940126;29;20644;-91
2023/03/20 05:16:55;;;;;;;37.10;25.80;;;9.60;99.90;;;;;;4936550;29;20568;-91
2023/03/20 05:19:23;;;;;;;37.77;26.37;;;9.70;99.90;;;;;;4940094;29;20295;-91
2023/03/20 05:21:50;;;;;;;34.30;24.40;;;9.70;99.90;;;;;;4940125;29;20646;-91
2023/03/20 05:24:17;;;;;;;33.37;24.60;;;9.80;99.90;;;;;;4934745;29;20302;-93
2023/03/20 05:26:43;;;;;;;35.60;25.47;;;9.90;99.90;;;;;;4940356;29;20203;-93
2023/03/20 05:29:10;;;;;;;37.30;24.37;;;9.90;99.90;;;;;;4939904;29;20213;-90
2023/03/20 05:31:37;;;;;;;35.60;26.10;;;9.90;99.90;;;;;;4926373;29;20215;-90
2023/03/20 05:34:04;;;;;;;39.53;26.90;;;9.90;99.90;;;;;;4938242;29;20234;-90
2023/03/20 05:36:32;;;;;;;40.97;25.53;;;10.00;99.90;;;;;;4935973;29;20193;-91
2023/03/20 05:38:59;;;;;;;40.40;25.73;;;10.00;99.90;;;;;;4939156;29;20228;-90
2023/03/20 05:41:26;;;;;;;43.10;25.60;;;10.00;99.90;;;;;;4927235;29;20203;-91
2023/03/20 05:43:53;;;;;;;37.70;25.60;;;10.00;99.90;;;;;;4939779;29;20215;-91
2023/03/20 05:46:21;;;;;;;35.33;24.33;;;10.00;99.90;;;;;;4928199;29;20209;-91
2023/03/20 05:48:48;;;;;;;36.77;25.40;;;10.10;99.90;;;;;;4937456;29;20619;-94
2023/03/20 05:51:15;;;;;;;36.00;24.07;;;10.10;99.90;;;;;;4939840;29;20201;-93
2023/03/20 05:53:43;;;;;;;39.03;25.03;;;10.20;99.90;;;;;;4939874;29;20205;-92
2023/03/20 05:56:10;;;;;;;39.07;26.20;;;10.30;1.00;;;;;;4936063;29;20209;-93
2023/03/20 05:58:37;;;;;;;33.60;24.13;;;10.30;99.90;;;;;;4939311;29;20289;-91
2023/03/20 06:01:04;;;;;;;35.67;24.77;;;10.40;99.90;;;;;;4939130;29;20207;-92
2023/03/20 06:03:30;;;;;;;34.07;24.13;;;10.50;99.90;;;;;;4940217;29;20208;-94
2023/03/20 06:05:57;;;;;;;35.13;25.43;;;10.50;99.90;;;;;;4939242;29;20198;-92
2023/03/20 06:08:24;;;;;;;40.50;25.33;;;10.60;99.90;;;;;;4930002;29;20289;-92
2023/03/20 06:10:53;;;;;;;37.57;25.90;;;10.70;99.90;;;;;;4939334;29;20212;-92
2023/03/20 06:13:19;;;;;;;33.00;24.13;;;10.80;99.90;;;;;;4930347;29;20207;-90
2023/03/20 06:15:46;;;;;;;36.43;23.73;;;10.90;99.90;;;;;;4938384;29;20279;-90
2023/03/20 06:18:13;;;;;;;39.37;28.87;;;11.00;99.90;;;;;;4938151;29;20216;-89
2023/03/20 06:20:40;;;;;;;39.43;27.93;;;11.00;99.90;;;;;;4938581;29;20212;-91
2023/03/20 06:23:07;;;;;;;37.93;27.00;;;11.00;99.90;;;;;;4938858;29;20202;-91
2023/03/20 06:25:34;;;;;;;29.57;24.23;;;11.00;99.90;;;;;;4938413;29;20201;-91
2023/03/20 06:28:02;;;;;;;34.80;25.10;;;11.10;99.90;;;;;;4939068;29;20203;-92
2023/03/20 06:30:29;;;;;;;34.00;26.13;;;11.20;99.90;;;;;;4938992;29;20657;-90
2023/03/20 06:32:56;;;;;;;38.03;29.17;;;11.20;99.90;;;;;;4939115;29;20191;-90
2023/03/20 06:35:22;;;;;;;34.03;26.30;;;11.30;99.90;;;;;;4938206;29;20198;-91
2023/03/20 06:37:49;;;;;;;35.87;25.50;;;11.40;99.90;;;;;;4938667;29;20200;-91
2023/03/20 06:40:16;;;;;;;34.17;24.43;;;11.40;99.90;;;;;;4938115;29;20218;-90
2023/03/20 06:42:43;;;;;;;36.40;25.30;;;11.50;99.90;;;;;;4938711;29;20562;-89
2023/03/20 06:45:12;;;;;;;30.83;22.60;;;11.50;99.90;;;;;;4938669;29;20204;-90
2023/03/20 06:47:38;;;;;;;29.60;21.70;;;11.50;99.90;;;;;;4938557;29;20589;-90
2023/03/20 06:50:06;;;;;;;29.67;23.00;;;11.60;99.90;;;;;;4938401;29;20217;-91
2023/03/20 06:52:34;;;;;;;44.30;33.23;;;11.80;99.90;;;;;;4938611;29;20214;-91
2023/03/20 06:55:01;;;;;;;51.83;36.97;;;11.90;40.10;;;;;;4938359;29;20263;-90
2023/03/20 06:57:28;;;;;;;68.37;45.30;;;12.00;1.00;;;;;;4938692;29;20574;-90
2023/03/20 06:59:54;;;;;;;39.53;29.27;;;12.10;1.00;;;;;;4937955;29;20243;-90
2023/03/20 07:02:23;;;;;;;36.03;25.10;;;12.10;66.50;;;;;;4936912;29;20202;-91
2023/03/20 07:04:50;;;;;;;32.83;24.43;;;12.40;99.90;;;;;;4938108;29;20547;-90
2023/03/20 07:07:17;;;;;;;32.70;23.83;;;12.60;55.50;;;;;;4938011;29;20910;-90
2023/03/20 07:09:45;;;;;;;32.80;24.60;;;12.80;1.00;;;;;;4938320;29;20197;-90
2023/03/20 07:12:14;;;;;;;29.87;23.30;;;13.00;1.00;;;;;;4937910;29;20600;-91
2023/03/20 07:14:41;;;;;;;33.33;24.00;;;13.10;1.00;;;;;;4938203;29;20647;-90
2023/03/20 07:17:08;;;;;;;40.60;28.80;;;13.10;99.90;;;;;;4937712;29;20605;-90
2023/03/20 07:19:37;;;;;;;25.60;20.03;;;13.20;99.90;;;;;;4937348;29;20569;-89
2023/03/20 07:22:07;;;;;;;21.40;18.30;;;13.30;99.90;;;;;;4937966;29;20284;-90
2023/03/20 07:24:34;;;;;;;26.23;19.77;;;13.50;99.90;;;;;;4932392;29;20240;-91
2023/03/20 07:27:01;;;;;;;25.97;18.33;;;13.60;99.90;;;;;;4929684;29;20203;-90
2023/03/20 07:29:28;;;;;;;21.50;17.27;;;13.70;1.00;;;;;;4925272;29;20679;-90
2023/03/20 07:31:55;;;;;;;23.87;18.47;;;13.70;1.00;;;;;;4926250;29;20203;-91
2023/03/20 07:34:22;;;;;;;25.30;18.53;;;13.70;1.00;;;;;;4937631;29;20285;-91
2023/03/20 07:36:51;;;;;;;30.97;19.97;;;13.80;1.00;;;;;;4937460;29;20215;-90
2023/03/20 07:39:17;;;;;;;25.37;18.50;;;13.90;1.00;;;;;;4936937;29;20228;-91
2023/03/20 07:41:44;;;;;;;25.43;17.13;;;13.90;1.00;;;;;;4940191;29;20679;-90
2023/03/20 07:44:13;;;;;;;22.40;17.93;;;14.10;1.00;;;;;;4940640;29;20661;-90
2023/03/20 07:46:40;;;;;;;22.00;16.27;;;14.20;99.90;;;;;;4937499;29;20197;-92
2023/03/20 07:49:07;;;;;;;23.67;17.40;;;14.30;99.90;;;;;;4937563;29;20201;-91
2023/03/20 07:51:34;;;;;;;19.70;15.73;;;14.40;1.00;;;;;;4934323;29;20793;-91
2023/03/20 07:54:02;;;;;;;27.43;19.27;;;14.40;1.00;;;;;;4936808;29;20582;-92
2023/03/20 07:56:29;;;;;;;20.03;16.40;;;14.40;1.00;;;;;;4925266;29;20209;-91
2023/03/20 07:58:56;;;;;;;24.70;18.73;;;14.40;1.00;;;;;;4940109;29;20200;-91
2023/03/20 08:01:23;;;;;;;49.50;29.17;;;14.40;1.00;;;;;;4944975;29;20205;-92
2023/03/20 08:03:50;;;;;;;30.37;20.37;;;14.50;1.00;;;;;;4937685;29;20214;-91
2023/03/20 08:06:17;;;;;;;50.13;30.27;;;14.50;1.00;;;;;;4934467;29;20220;-92
2023/03/20 08:08:43;;;;;;;40.77;25.60;;;14.50;1.00;;;;;;4926864;29;20206;-91
2023/03/20 08:11:12;;;;;;;58.60;33.33;;;14.50;99.90;;;;;;4936161;29;20231;-92
2023/03/20 08:13:39;;;;;;;72.23;39.73;;;14.40;99.90;;;;;;4924636;29;20209;-91
2023/03/20 08:16:06;;;;;;;85.33;41.73;;;14.30;99.90;;;;;;4937576;29;20245;-92
2023/03/20 08:18:33;;;;;;;99.60;51.23;;;14.20;99.90;;;;;;4937308;29;20207;-92
2023/03/20 08:21:00;;;;;;;75.60;45.17;;;14.10;99.90;;;;;;4936938;29;20232;-93
2023/03/20 08:23:27;;;;;;;38.27;26.30;;;14.00;99.90;;;;;;4937239;29;20291;-92
2023/03/20 08:25:54;;;;;;;31.87;23.07;;;13.90;99.90;;;;;;4937019;29;20666;-94
2023/03/20 08:28:23;;;;;;;35.07;24.53;;;13.90;99.90;;;;;;4937031;29;20208;-92
2023/03/20 08:30:50;;;;;;;33.83;25.13;;;13.90;99.90;;;;;;4938038;29;20196;-93
2023/03/20 08:33:18;;;;;;;30.00;21.77;;;13.90;99.90;;;;;;4937380;29;20211;-92
2023/03/20 08:35:54;;;;;;;37.47;27.40;;;13.90;99.90;;;;;;4936901;29;20211;-93
2023/03/20 08:38:21;;;;;;;30.67;21.07;;;14.00;99.90;;;;;;4923902;29;20204;-92
2023/03/20 08:40:48;;;;;;;41.33;29.00;;;14.10;99.90;;;;;;4923737;29;20229;-93
2023/03/20 08:43:15;;;;;;;28.30;21.03;;;14.20;99.90;;;;;;4928331;29;20208;-93
2023/03/20 08:45:43;;;;;;;39.70;26.30;;;14.30;99.90;;;;;;4936968;29;20216;-93
2023/03/20 08:48:10;;;;;;;38.47;25.40;;;14.30;1.00;;;;;;4936745;29;20572;-92
2023/03/20 08:50:37;;;;;;;32.70;22.87;;;14.40;1.00;;;;;;4940585;29;20202;-92
2023/03/20 08:53:04;;;;;;;28.57;20.93;;;14.30;1.00;;;;;;4936951;29;20617;-92
2023/03/20 08:55:31;;;;;;;26.07;19.77;;;14.30;1.00;;;;;;4937461;29;20295;-92
2023/03/20 08:57:58;;;;;;;24.90;18.53;;;14.40;1.00;;;;;;4936573;29;20196;-92
2023/03/20 09:00:26;;;;;;;26.07;20.57;;;14.40;1.00;;;;;;4917848;29;20251;-92
2023/03/20 09:02:54;;;;;;;23.03;19.00;;;14.40;1.00;;;;;;4918284;29;20241;-92
2023/03/20 09:05:21;;;;;;;22.53;17.60;;;14.40;1.00;;;;;;4917938;29;20242;-92
2023/03/20 09:07:48;;;;;;;26.37;19.30;;;14.50;1.00;;;;;;4928457;29;20652;-93
2023/03/20 09:10:15;;;;;;;25.93;20.10;;;14.60;1.00;;;;;;4936972;29;20573;-93
2023/03/20 09:12:42;;;;;;;23.97;18.40;;;14.70;1.00;;;;;;4936584;29;20244;-92
2023/03/20 09:15:10;;;;;;;67.65;18.70;;;14.70;1.00;;;;;;4936656;29;20198;-92
2023/03/20 09:17:37;;;;;;;17.83;13.73;;;14.50;1.00;;;;;;4936947;29;20210;-92
2023/03/20 09:20:07;;;;;;;20.80;14.97;;;14.30;1.00;;;;;;4937055;29;20226;-92
2023/03/20 09:22:33;;;;;;;19.17;14.03;;;14.00;1.00;;;;;;4938386;29;20291;-93
2023/03/20 09:25:00;;;;;;;26.23;17.17;;;13.90;1.00;;;;;;4940451;29;20209;-91
2023/03/20 09:27:27;;;;;;;23.63;17.57;;;13.90;92.30;;;;;;4921370;29;20206;-92
2023/03/20 09:29:54;;;;;;;23.40;15.90;;;14.10;74.20;;;;;;4921633;29;20195;-92
2023/03/20 09:32:20;;;;;;;21.83;16.33;;;14.30;1.00;;;;;;4939113;29;20216;-92
2023/03/20 09:34:47;;;;;;;22.33;16.95;;;14.60;1.00;;;;;;4940231;29;20210;-93
2023/03/20 09:37:15;;;;;;;20.73;16.38;;;14.80;1.00;;;;;;4940146;29;20208;-93
2023/03/20 09:39:42;;;;;;;22.37;16.70;;;14.80;1.00;;;;;;4939881;29;20221;-94
2023/03/20 09:42:25;;;;;;;23.80;17.95;;;14.80;99.90;;;;;;4940292;29;20205;-93
2023/03/20 09:45:00;;;;;;;24.95;17.77;;;14.80;1.00;;;;;;4940373;29;20237;-92
2023/03/20 09:47:35;;;;;;;25.40;17.65;;;14.90;99.90;;;;;;4940078;29;20201;-92
2023/03/20 09:50:21;;;;;;;24.00;17.95;;;15.10;99.90;;;;;;4938960;29;20281;-93
2023/03/20 09:52:57;;;;;;;25.45;17.55;;;15.20;99.90;;;;;;4933665;29;20225;-93
2023/03/20 09:55:31;;;;;;;27.13;20.05;;;15.20;99.90;;;;;;4928808;29;20266;-94
2023/03/20 09:58:02;;;;;;;25.43;19.37;;;14.90;1.00;;;;;;4939058;29;20197;-93
2023/03/20 10:00:32;;;;;;;27.10;19.52;;;14.70;44.00;;;;;;4939792;29;20234;-93
2023/03/20 10:03:02;;;;;;;27.73;20.53;;;14.60;99.90;;;;;;4938990;29;20208;-94
2023/03/20 10:05:31;;;;;;;28.17;20.50;;;14.50;99.90;;;;;;4937664;29;20208;-92
2023/03/20 10:08:02;;;;;;;26.10;18.37;;;14.50;99.90;;;;;;4939375;29;20209;-93
2023/03/20 10:10:41;;;;;;;28.73;19.77;;;14.40;96.60;;;;;;4939374;29;20584;-92
2023/03/20 10:13:28;;;;;;;60.53;32.23;;;14.10;99.90;;;;;;4939554;29;20211;-91
2023/03/20 10:16:03;;;;;;;52.73;29.80;;;13.80;99.90;;;;;;4938709;29;20209;-92
2023/03/20 10:18:34;;;;;;;44.60;24.93;;;13.60;1.00;;;;;;4937717;29;20211;-92
2023/03/20 10:21:06;;;;;;;42.53;26.77;;;13.40;1.00;;;;;;4926939;29;20674;-92
2023/03/20 10:23:39;;;;;;;44.73;26.03;;;13.30;1.00;;;;;;4939139;29;20219;-94
2023/03/20 10:26:11;;;;;;;46.97;27.90;;;13.20;1.00;;;;;;4926467;29;20202;-94
2023/03/20 10:28:45;;;;;;;44.60;26.10;;;13.10;1.00;;;;;;4939287;29;20587;-93
2023/03/20 10:31:26;;;;;;;48.73;27.60;;;12.90;1.00;;;;;;4929904;29;20196;-92
2023/03/20 10:34:03;;;;;;;48.57;26.17;;;12.90;1.00;;;;;;4938371;29;20202;-94
2023/03/20 10:36:46;;;;;;;48.90;27.40;;;12.80;15.00;;;;;;4928806;29;20214;-92
2023/03/20 10:39:22;;;;;;;48.97;27.23;;;12.70;8.20;;;;;;4932227;29;20666;-93
2023/03/20 10:41:53;;;;;;;53.70;27.93;;;12.70;21.70;;;;;;4938959;29;20212;-92
2023/03/20 10:44:29;;;;;;;47.97;25.23;;;12.60;99.90;;;;;;4936738;29;20208;-92
2023/03/20 10:47:00;;;;;;;52.00;27.67;;;12.60;99.90;;;;;;4938794;29;20209;-92
2023/03/20 10:49:33;;;;;;;63.83;31.20;;;12.50;99.90;;;;;;4939099;29;20215;-92
2023/03/20 10:52:03;;;;;;;70.10;32.27;;;12.50;99.90;;;;;;4938639;29;20201;-91
2023/03/20 10:54:35;;;;;;;60.23;29.47;;;12.50;99.90;;;;;;4933526;29;20198;-92
2023/03/20 10:57:04;;;;;;;62.27;30.87;;;12.40;99.90;;;;;;4938798;29;20201;-91
2023/03/20 10:59:37;;;;;;;54.50;28.73;;;12.40;99.90;;;;;;4928219;29;20210;-92
2023/03/20 11:02:10;;;;;;;54.77;29.30;;;12.40;1.00;;;;;;4925749;29;20268;-92
2023/03/20 11:04:37;;;;;;;57.13;28.77;;;12.50;1.00;;;;;;4925881;29;20755;-92
2023/03/20 11:07:12;;;;;;;55.50;27.37;;;12.60;1.00;;;;;;4930280;29;20250;-93
2023/03/20 11:09:40;;;;;;;52.67;28.40;;;12.70;99.90;;;;;;4934128;29;20615;-91
2023/03/20 11:12:17;;;;;;;50.37;26.83;;;12.70;99.90;;;;;;4930513;29;20224;-93
2023/03/20 11:14:45;;;;;;;50.27;27.57;;;12.80;99.90;;;;;;4938335;29;20204;-92
2023/03/20 11:17:12;;;;;;;60.83;34.50;;;12.90;99.90;;;;;;4932253;29;20670;-92
2023/03/20 11:19:41;;;;;;;59.53;34.90;;;13.00;99.90;;;;;;4937859;29;20727;-93
2023/03/20 11:22:19;;;;;;;58.20;30.10;;;13.10;99.90;;;;;;4937815;29;20718;-93
2023/03/20 11:24:52;;;;;;;46.80;27.50;;;13.20;99.90;;;;;;4938463;29;20191;-92
2023/03/20 11:27:24;;;;;;;43.87;25.30;;;13.20;26.20;;;;;;4938476;29;20196;-92
2023/03/20 11:29:52;;;;;;;60.67;39.00;;;13.10;1.00;;;;;;4938392;29;20191;-92
2023/03/20 11:32:27;;;;;;;50.97;30.30;;;13.10;99.90;;;;;;4937957;29;20194;-93
2023/03/20 11:34:56;;;;;;;46.97;28.73;;;13.10;73.00;;;;;;4938246;29;20534;-90
2023/03/20 11:37:25;;;;;;;48.37;28.20;;;13.00;1.00;;;;;;4937886;29;20567;-92
2023/03/20 11:40:07;;;;;;;54.43;32.27;;;12.90;1.00;;;;;;4937950;29;20212;-91
2023/03/20 11:42:36;;;;;;;46.53;26.90;;;12.70;19.50;;;;;;4937445;29;20213;-92
2023/03/20 11:45:05;;;;;;;62.03;34.17;;;12.50;99.90;;;;;;4937557;29;20710;-92
2023/03/20 11:47:35;;;;;;;47.77;28.03;;;12.30;99.90;;;;;;4919087;29;20203;-92
2023/03/20 11:50:04;;;;;;;47.20;27.90;;;12.20;1.00;;;;;;4918978;29;20194;-92
2023/03/20 11:52:33;;;;;;;44.07;25.73;;;12.30;1.00;;;;;;4919172;29;20206;-89
2023/03/20 11:55:06;;;;;;;36.80;22.00;;;12.40;1.00;;;;;;4926450;29;20215;-91
2023/03/20 11:57:35;;;;;;;32.17;18.90;;;12.50;99.90;;;;;;4918840;29;20196;-92
2023/03/20 12:00:16;;;;;;;28.33;18.37;;;12.60;99.90;;;;;;4918757;29;20199;-92
2023/03/20 12:02:43;;;;;;;31.57;18.23;;;12.80;99.90;;;;;;4918874;29;20182;-92
2023/03/20 12:05:28;;;;;;;31.63;18.07;;;13.10;1.00;;;;;;4935528;29;20195;-92
2023/03/20 12:07:57;;;;;;;26.47;15.60;;;13.30;1.00;;;;;;4937545;29;20547;-91
2023/03/20 12:10:31;;;;;;;25.83;16.63;;;13.50;1.00;;;;;;4937206;29;20615;-91
2023/03/20 12:13:01;;;;;;;27.03;15.27;;;13.40;99.90;;;;;;4937164;29;20597;-92
2023/03/20 12:15:31;;;;;;;23.63;15.27;;;13.40;99.90;;;;;;4937623;29;20213;-92
2023/03/20 12:18:03;;;;;;;28.70;17.37;;;13.40;99.90;;;;;;4937369;29;20193;-92
2023/03/20 12:20:38;;;;;;;27.37;14.87;;;13.30;99.90;;;;;;4937291;29;20201;-93
2023/03/20 12:23:12;;;;;;;24.07;14.87;;;13.30;99.90;;;;;;4937323;29;20203;-91
2023/03/20 12:25:48;;;;;;;18.93;12.93;;;13.40;99.90;;;;;;4937270;29;20214;-92
2023/03/20 12:28:21;;;;;;;30.97;18.37;;;13.30;86.20;;;;;;4936455;29;20205;-91
2023/03/20 12:31:03;;;;;;;93.13;55.00;;;13.30;47.20;;;;;;4937237;29;20197;-92
2023/03/20 12:33:40;;;;;;;117.47;63.40;;;13.30;95.70;;;;;;4918319;29;20571;-92
2023/03/20 12:36:13;;;;;;;45.70;26.27;;;13.30;23.00;;;;;;4926157;29;20201;-92
2023/03/20 12:38:41;;;;;;;79.60;39.00;;;13.20;1.00;;;;;;4937143;29;20194;-92
2023/03/20 12:41:13;;;;;;;25.97;15.80;;;13.10;1.00;;;;;;4936176;29;20270;-92
2023/03/20 12:44:00;;;;;;;118.37;60.47;;;13.00;9.80;;;;;;4942783;29;20671;-92
2023/03/20 12:46:34;;;;;;;49.57;25.93;;;13.00;30.70;;;;;;4933095;29;20275;-92